sensor_id;sensor_type;location;lat;lon;timestamp;temperature;humidity
13898;DHT22;7019;50.766;4.474;2023-08-21T00:01:45;19.50;99.90
13898;DHT22;7019;50.766;4.474;2023-08-21T00:04:13;19.40;99.90
13898;DHT22;7019;50.766;4.474;2023-08-21T00:06:40;19.30;99.90
13898;DHT22;7019;50.766;4.474;2023-08-21T00:09:07;19.20;99.90
13898;DHT22;7019;50.766;4.474;2023-08-21T00:11:35;19.10;99.90
13898;DHT22;7019;50.766;4.474;2023-08-21T00:14:02;18.90;99.90
13898;DHT22;7019;50.766;4.474;2023-08-21T00:16:29;18.90;99.90
13898;DHT22;7019;50.766;4.474;2023-08-21T00:18:57;18.80;99.90
13898;DHT22;7019;50.766;4.474;2023-08-21T00:21:24;18.70;99.90
13898;DHT22;7019;50.766;4.474;2023-08-21T00:23:51;18.70;99.90
13898;DHT22;7019;50.766;4.474;2023-08-21T00:26:18;18.60;99.90
13898;DHT22;7019;50.766;4.474;2023-08-21T00:28:46;18.60;99.90
13898;DHT22;7019;50.766;4.474;2023-08-21T00:31:13;18.50;99.90
13898;DHT22;7019;50.766;4.474;2023-08-21T00:33:40;18.40;99.90
13898;DHT22;7019;50.766;4.474;2023-08-21T00:36:08;18.40;99.90
13898;DHT22;7019;50.766;4.474;2023-08-21T00:38:35;18.40;99.90
13898;DHT22;7019;50.766;4.474;2023-08-21T00:41:02;18.40;99.90
13898;DHT22;7019;50.766;4.474;2023-08-21T00:43:29;18.50;99.90
13898;DHT22;7019;50.766;4.474;2023-08-21T00:45:56;18.60;99.90
13898;DHT22;7019;50.766;4.474;2023-08-21T00:48:24;18.60;99.90
13898;DHT22;7019;50.766;4.474;2023-08-21T00:50:52;18.50;99.90
13898;DHT22;7019;50.766;4.474;2023-08-21T00:53:20;18.50;99.90
13898;DHT22;7019;50.766;4.474;2023-08-21T00:55:48;18.40;99.90
13898;DHT22;7019;50.766;4.474;2023-08-21T00:58:16;18.50;99.90
13898;DHT22;7019;50.766;4.474;2023-08-21T01:00:45;18.50;99.90
13898;DHT22;7019;50.766;4.474;2023-08-21T01:03:15;18.50;99.90
13898;DHT22;7019;50.766;4.474;2023-08-21T01:05:42;18.60;99.90
13898;DHT22;7019;50.766;4.474;2023-08-21T01:08:14;18.60;99.90
13898;DHT22;7019;50.766;4.474;2023-08-21T01:10:49;18.50;99.90
13898;DHT22;7019;50.766;4.474;2023-08-21T01:13:33;18.40;99.90
13898;DHT22;7019;50.766;4.474;2023-08-21T01:16:03;18.30;99.90
13898;DHT22;7019;50.766;4.474;2023-08-21T01:18:34;18.30;99.90
13898;DHT22;7019;50.766;4.474;2023-08-21T01:21:02;18.20;99.90
13898;DHT22;7019;50.766;4.474;2023-08-21T01:23:35;18.10;99.90
13898;DHT22;7019;50.766;4.474;2023-08-21T01:26:03;18.00;99.90
13898;DHT22;7019;50.766;4.474;2023-08-21T01:28:30;17.90;99.90
13898;DHT22;7019;50.766;4.474;2023-08-21T01:31:01;17.90;99.90
13898;DHT22;7019;50.766;4.474;2023-08-21T01:33:31;17.80;99.90
13898;DHT22;7019;50.766;4.474;2023-08-21T01:36:02;17.80;99.90
13898;DHT22;7019;50.766;4.474;2023-08-21T01:38:31;17.70;99.90
13898;DHT22;7019;50.766;4.474;2023-08-21T01:41:00;17.70;99.90
13898;DHT22;7019;50.766;4.474;2023-08-21T01:43:28;17.60;99.90
13898;DHT22;7019;50.766;4.474;2023-08-21T01:45:55;17.60;99.90
13898;DHT22;7019;50.766;4.474;2023-08-21T01:48:22;17.60;99.90
13898;DHT22;7019;50.766;4.474;2023-08-21T01:50:49;17.50;99.90
13898;DHT22;7019;50.766;4.474;2023-08-21T01:53:17;17.50;99.90
13898;DHT22;7019;50.766;4.474;2023-08-21T01:55:44;17.50;99.90
13898;DHT22;7019;50.766;4.474;2023-08-21T01:58:12;17.40;99.90
13898;DHT22;7019;50.766;4.474;2023-08-21T02:00:39;17.40;99.90
13898;DHT22;7019;50.766;4.474;2023-08-21T02:03:06;17.30;99.90
13898;DHT22;7019;50.766;4.474;2023-08-21T02:05:38;17.30;99.90
13898;DHT22;7019;50.766;4.474;2023-08-21T02:08:06;17.20;99.90
13898;DHT22;7019;50.766;4.474;2023-08-21T02:10:33;17.20;99.90
13898;DHT22;7019;50.766;4.474;2023-08-21T02:13:00;17.20;99.90
13898;DHT22;7019;50.766;4.474;2023-08-21T02:15:29;17.20;99.90
13898;DHT22;7019;50.766;4.474;2023-08-21T02:17:56;17.10;99.90
13898;DHT22;7019;50.766;4.474;2023-08-21T02:20:23;17.10;99.90
13898;DHT22;7019;50.766;4.474;2023-08-21T02:22:50;17.10;99.90
13898;DHT22;7019;50.766;4.474;2023-08-21T02:25:17;17.10;99.90
13898;DHT22;7019;50.766;4.474;2023-08-21T02:27:44;17.00;99.90
13898;DHT22;7019;50.766;4.474;2023-08-21T02:30:12;17.00;99.90
13898;DHT22;7019;50.766;4.474;2023-08-21T02:32:40;17.00;99.90
13898;DHT22;7019;50.766;4.474;2023-08-21T02:35:08;17.00;99.90
13898;DHT22;7019;50.766;4.474;2023-08-21T02:37:36;16.90;99.90
13898;DHT22;7019;50.766;4.474;2023-08-21T02:40:06;16.90;99.90
13898;DHT22;7019;50.766;4.474;2023-08-21T02:42:34;16.90;99.90
13898;DHT22;7019;50.766;4.474;2023-08-21T02:45:02;16.90;99.90
13898;DHT22;7019;50.766;4.474;2023-08-21T02:47:34;16.80;99.90
13898;DHT22;7019;50.766;4.474;2023-08-21T02:50:04;16.90;99.90
13898;DHT22;7019;50.766;4.474;2023-08-21T02:52:32;16.90;99.90
13898;DHT22;7019;50.766;4.474;2023-08-21T02:54:59;16.90;99.90
13898;DHT22;7019;50.766;4.474;2023-08-21T02:57:27;17.00;99.90
13898;DHT22;7019;50.766;4.474;2023-08-21T02:59:54;17.00;99.90
13898;DHT22;7019;50.766;4.474;2023-08-21T03:02:22;17.10;99.90
13898;DHT22;7019;50.766;4.474;2023-08-21T03:04:50;17.10;99.90
13898;DHT22;7019;50.766;4.474;2023-08-21T03:07:18;17.10;99.90
13898;DHT22;7019;50.766;4.474;2023-08-21T03:09:46;17.10;99.90
13898;DHT22;7019;50.766;4.474;2023-08-21T03:12:13;17.10;99.90
13898;DHT22;7019;50.766;4.474;2023-08-21T03:14:40;17.10;99.90
13898;DHT22;7019;50.766;4.474;2023-08-21T03:17:07;17.10;99.90
13898;DHT22;7019;50.766;4.474;2023-08-21T03:19:35;17.10;99.90
13898;DHT22;7019;50.766;4.474;2023-08-21T03:22:02;17.00;99.90
13898;DHT22;7019;50.766;4.474;2023-08-21T03:24:30;17.00;99.90
13898;DHT22;7019;50.766;4.474;2023-08-21T03:26:57;17.00;99.90
13898;DHT22;7019;50.766;4.474;2023-08-21T03:29:24;16.90;99.90
13898;DHT22;7019;50.766;4.474;2023-08-21T03:31:52;16.90;99.90
13898;DHT22;7019;50.766;4.474;2023-08-21T03:34:20;16.80;99.90
13898;DHT22;7019;50.766;4.474;2023-08-21T03:36:47;16.70;99.90
13898;DHT22;7019;50.766;4.474;2023-08-21T03:39:14;16.70;99.90
13898;DHT22;7019;50.766;4.474;2023-08-21T03:41:43;16.60;99.90
13898;DHT22;7019;50.766;4.474;2023-08-21T03:44:10;16.60;99.90
13898;DHT22;7019;50.766;4.474;2023-08-21T03:46:37;16.60;99.90
13898;DHT22;7019;50.766;4.474;2023-08-21T03:49:04;16.50;99.90
13898;DHT22;7019;50.766;4.474;2023-08-21T03:51:31;16.50;99.90
13898;DHT22;7019;50.766;4.474;2023-08-21T03:53:58;16.50;99.90
13898;DHT22;7019;50.766;4.474;2023-08-21T03:56:25;16.50;99.90
13898;DHT22;7019;50.766;4.474;2023-08-21T03:58:54;16.50;99.90
13898;DHT22;7019;50.766;4.474;2023-08-21T04:01:21;16.40;99.90
13898;DHT22;7019;50.766;4.474;2023-08-21T04:03:49;16.40;99.90
13898;DHT22;7019;50.766;4.474;2023-08-21T04:06:16;16.40;99.90
13898;DHT22;7019;50.766;4.474;2023-08-21T04:08:43;16.30;99.90
13898;DHT22;7019;50.766;4.474;2023-08-21T04:11:10;16.30;99.90
13898;DHT22;7019;50.766;4.474;2023-08-21T04:13:37;16.30;99.90
13898;DHT22;7019;50.766;4.474;2023-08-21T04:16:06;16.30;99.90
13898;DHT22;7019;50.766;4.474;2023-08-21T04:18:33;16.20;99.90
13898;DHT22;7019;50.766;4.474;2023-08-21T04:21:02;16.20;99.90
13898;DHT22;7019;50.766;4.474;2023-08-21T04:23:30;16.20;99.90
13898;DHT22;7019;50.766;4.474;2023-08-21T04:26:00;16.20;99.90
13898;DHT22;7019;50.766;4.474;2023-08-21T04:28:29;16.20;99.90
13898;DHT22;7019;50.766;4.474;2023-08-21T04:30:56;16.10;99.90
13898;DHT22;7019;50.766;4.474;2023-08-21T04:33:25;16.10;99.90
13898;DHT22;7019;50.766;4.474;2023-08-21T04:35:52;16.10;99.90
13898;DHT22;7019;50.766;4.474;2023-08-21T04:38:19;16.10;99.90
13898;DHT22;7019;50.766;4.474;2023-08-21T04:40:46;16.10;99.90
13898;DHT22;7019;50.766;4.474;2023-08-21T04:43:13;16.10;99.90
13898;DHT22;7019;50.766;4.474;2023-08-21T04:45:47;16.10;99.90
13898;DHT22;7019;50.766;4.474;2023-08-21T04:48:14;16.10;99.90
13898;DHT22;7019;50.766;4.474;2023-08-21T04:50:42;16.10;99.90
13898;DHT22;7019;50.766;4.474;2023-08-21T04:53:09;16.10;99.90
13898;DHT22;7019;50.766;4.474;2023-08-21T04:55:37;16.10;99.90
13898;DHT22;7019;50.766;4.474;2023-08-21T04:58:06;16.10;99.90
13898;DHT22;7019;50.766;4.474;2023-08-21T05:00:33;16.20;99.90
13898;DHT22;7019;50.766;4.474;2023-08-21T05:03:00;16.20;99.90
13898;DHT22;7019;50.766;4.474;2023-08-21T05:05:28;16.20;99.90
13898;DHT22;7019;50.766;4.474;2023-08-21T05:07:56;16.20;99.90
13898;DHT22;7019;50.766;4.474;2023-08-21T05:10:23;16.20;99.90
13898;DHT22;7019;50.766;4.474;2023-08-21T05:12:51;16.20;99.90
13898;DHT22;7019;50.766;4.474;2023-08-21T05:15:18;16.30;99.90
13898;DHT22;7019;50.766;4.474;2023-08-21T05:17:45;16.30;99.90
13898;DHT22;7019;50.766;4.474;2023-08-21T05:20:12;16.30;99.90
13898;DHT22;7019;50.766;4.474;2023-08-21T05:22:40;16.30;99.90
13898;DHT22;7019;50.766;4.474;2023-08-21T05:25:10;16.30;99.90
13898;DHT22;7019;50.766;4.474;2023-08-21T05:27:37;16.30;99.90
13898;DHT22;7019;50.766;4.474;2023-08-21T05:30:06;16.40;99.90
13898;DHT22;7019;50.766;4.474;2023-08-21T05:32:33;16.40;99.90
13898;DHT22;7019;50.766;4.474;2023-08-21T05:35:00;16.40;99.90
13898;DHT22;7019;50.766;4.474;2023-08-21T05:37:27;16.40;99.90
13898;DHT22;7019;50.766;4.474;2023-08-21T05:39:54;16.50;99.90
13898;DHT22;7019;50.766;4.474;2023-08-21T05:42:23;16.50;99.90
13898;DHT22;7019;50.766;4.474;2023-08-21T05:44:50;16.50;99.90
13898;DHT22;7019;50.766;4.474;2023-08-21T05:47:17;16.60;99.90
13898;DHT22;7019;50.766;4.474;2023-08-21T05:49:44;16.60;99.90
13898;DHT22;7019;50.766;4.474;2023-08-21T05:52:11;16.70;99.90
13898;DHT22;7019;50.766;4.474;2023-08-21T05:54:38;16.80;99.90
13898;DHT22;7019;50.766;4.474;2023-08-21T05:57:05;16.80;99.90
13898;DHT22;7019;50.766;4.474;2023-08-21T05:59:33;16.90;99.90
13898;DHT22;7019;50.766;4.474;2023-08-21T06:02:00;16.90;99.90
13898;DHT22;7019;50.766;4.474;2023-08-21T06:04:28;17.00;99.90
13898;DHT22;7019;50.766;4.474;2023-08-21T06:06:55;17.10;99.90
13898;DHT22;7019;50.766;4.474;2023-08-21T06:09:22;17.20;99.90
13898;DHT22;7019;50.766;4.474;2023-08-21T06:11:49;17.30;99.90
13898;DHT22;7019;50.766;4.474;2023-08-21T06:14:16;17.30;99.90
13898;DHT22;7019;50.766;4.474;2023-08-21T06:16:44;17.50;99.90
13898;DHT22;7019;50.766;4.474;2023-08-21T06:19:11;17.60;99.90
13898;DHT22;7019;50.766;4.474;2023-08-21T06:21:38;17.90;99.90
13898;DHT22;7019;50.766;4.474;2023-08-21T06:24:06;18.50;99.90
13898;DHT22;7019;50.766;4.474;2023-08-21T06:26:33;19.30;99.90
13898;DHT22;7019;50.766;4.474;2023-08-21T06:29:00;20.10;99.90
13898;DHT22;7019;50.766;4.474;2023-08-21T06:31:27;20.80;99.90
13898;DHT22;7019;50.766;4.474;2023-08-21T06:33:55;21.40;99.90
13898;DHT22;7019;50.766;4.474;2023-08-21T06:36:23;22.00;99.90
13898;DHT22;7019;50.766;4.474;2023-08-21T06:38:50;22.40;99.90
13898;DHT22;7019;50.766;4.474;2023-08-21T06:41:17;22.80;99.90
13898;DHT22;7019;50.766;4.474;2023-08-21T06:43:45;22.90;99.90
13898;DHT22;7019;50.766;4.474;2023-08-21T06:46:12;22.80;99.90
13898;DHT22;7019;50.766;4.474;2023-08-21T06:48:40;23.00;99.90
13898;DHT22;7019;50.766;4.474;2023-08-21T06:51:09;23.30;99.90
13898;DHT22;7019;50.766;4.474;2023-08-21T06:53:36;23.60;99.90
13898;DHT22;7019;50.766;4.474;2023-08-21T06:56:03;23.80;99.90
13898;DHT22;7019;50.766;4.474;2023-08-21T06:58:30;24.00;99.90
13898;DHT22;7019;50.766;4.474;2023-08-21T07:00:57;24.10;99.90
13898;DHT22;7019;50.766;4.474;2023-08-21T07:03:24;24.40;99.90
13898;DHT22;7019;50.766;4.474;2023-08-21T07:05:54;24.70;99.90
13898;DHT22;7019;50.766;4.474;2023-08-21T07:08:24;25.00;99.90
13898;DHT22;7019;50.766;4.474;2023-08-21T07:10:51;25.10;99.90
13898;DHT22;7019;50.766;4.474;2023-08-21T07:13:18;25.50;99.90
13898;DHT22;7019;50.766;4.474;2023-08-21T07:15:46;25.80;99.90
13898;DHT22;7019;50.766;4.474;2023-08-21T07:18:13;26.10;99.90
13898;DHT22;7019;50.766;4.474;2023-08-21T07:20:40;26.10;99.90
13898;DHT22;7019;50.766;4.474;2023-08-21T07:23:07;26.50;99.90
13898;DHT22;7019;50.766;4.474;2023-08-21T07:25:36;26.50;99.90
13898;DHT22;7019;50.766;4.474;2023-08-21T07:28:04;26.80;99.90
13898;DHT22;7019;50.766;4.474;2023-08-21T07:30:31;26.90;99.90
13898;DHT22;7019;50.766;4.474;2023-08-21T07:32:58;27.20;99.90
13898;DHT22;7019;50.766;4.474;2023-08-21T07:35:25;27.30;99.90
13898;DHT22;7019;50.766;4.474;2023-08-21T07:37:52;27.60;99.90
13898;DHT22;7019;50.766;4.474;2023-08-21T07:40:19;28.00;99.90
13898;DHT22;7019;50.766;4.474;2023-08-21T07:42:48;28.30;99.90
13898;DHT22;7019;50.766;4.474;2023-08-21T07:45:15;28.40;99.90
13898;DHT22;7019;50.766;4.474;2023-08-21T07:47:42;28.60;99.90
13898;DHT22;7019;50.766;4.474;2023-08-21T07:50:09;28.60;99.90
13898;DHT22;7019;50.766;4.474;2023-08-21T07:52:36;28.70;99.90
13898;DHT22;7019;50.766;4.474;2023-08-21T07:55:04;28.80;99.90
13898;DHT22;7019;50.766;4.474;2023-08-21T07:57:31;29.10;99.90
13898;DHT22;7019;50.766;4.474;2023-08-21T07:59:59;29.20;99.90
13898;DHT22;7019;50.766;4.474;2023-08-21T08:02:26;29.20;99.90
13898;DHT22;7019;50.766;4.474;2023-08-21T08:04:53;29.10;99.90
13898;DHT22;7019;50.766;4.474;2023-08-21T08:07:20;29.30;99.90
13898;DHT22;7019;50.766;4.474;2023-08-21T08:09:47;29.20;99.90
13898;DHT22;7019;50.766;4.474;2023-08-21T08:12:14;29.30;99.90
13898;DHT22;7019;50.766;4.474;2023-08-21T08:14:41;29.60;99.90
13898;DHT22;7019;50.766;4.474;2023-08-21T08:17:10;29.60;99.90
13898;DHT22;7019;50.766;4.474;2023-08-21T08:19:37;29.90;99.90
13898;DHT22;7019;50.766;4.474;2023-08-21T08:22:04;30.00;99.90
13898;DHT22;7019;50.766;4.474;2023-08-21T08:24:31;30.00;99.90
13898;DHT22;7019;50.766;4.474;2023-08-21T08:26:58;30.00;99.90
13898;DHT22;7019;50.766;4.474;2023-08-21T08:29:25;30.30;99.90
13898;DHT22;7019;50.766;4.474;2023-08-21T08:31:52;30.00;99.90
13898;DHT22;7019;50.766;4.474;2023-08-21T08:34:20;30.00;99.90
13898;DHT22;7019;50.766;4.474;2023-08-21T08:36:47;30.30;99.90
13898;DHT22;7019;50.766;4.474;2023-08-21T08:39:14;30.60;99.90
13898;DHT22;7019;50.766;4.474;2023-08-21T08:41:48;30.80;99.90
13898;DHT22;7019;50.766;4.474;2023-08-21T08:44:18;30.80;99.90
13898;DHT22;7019;50.766;4.474;2023-08-21T08:46:45;31.00;99.90
13898;DHT22;7019;50.766;4.474;2023-08-21T08:49:12;31.10;99.90
13898;DHT22;7019;50.766;4.474;2023-08-21T08:51:42;31.00;99.80
13898;DHT22;7019;50.766;4.474;2023-08-21T08:54:10;31.30;99.90
13898;DHT22;7019;50.766;4.474;2023-08-21T08:56:38;31.40;99.90
13898;DHT22;7019;50.766;4.474;2023-08-21T08:59:08;31.20;99.20
13898;DHT22;7019;50.766;4.474;2023-08-21T09:01:35;31.30;99.90
13898;DHT22;7019;50.766;4.474;2023-08-21T09:04:03;31.20;99.90
13898;DHT22;7019;50.766;4.474;2023-08-21T09:06:32;31.30;99.90
13898;DHT22;7019;50.766;4.474;2023-08-21T09:09:01;31.20;97.80
13898;DHT22;7019;50.766;4.474;2023-08-21T09:11:28;31.00;98.30
13898;DHT22;7019;50.766;4.474;2023-08-21T09:13:55;30.90;99.00
13898;DHT22;7019;50.766;4.474;2023-08-21T09:16:24;31.10;98.20
13898;DHT22;7019;50.766;4.474;2023-08-21T09:18:52;31.20;99.40
13898;DHT22;7019;50.766;4.474;2023-08-21T09:21:23;31.40;99.40
13898;DHT22;7019;50.766;4.474;2023-08-21T09:23:56;31.60;98.70
13898;DHT22;7019;50.766;4.474;2023-08-21T09:26:25;31.60;98.70
13898;DHT22;7019;50.766;4.474;2023-08-21T09:28:53;31.70;98.80
13898;DHT22;7019;50.766;4.474;2023-08-21T09:31:22;31.90;98.30
13898;DHT22;7019;50.766;4.474;2023-08-21T09:34:00;31.70;97.30
13898;DHT22;7019;50.766;4.474;2023-08-21T09:36:31;31.40;97.70
13898;DHT22;7019;50.766;4.474;2023-08-21T09:38:58;31.50;98.70
13898;DHT22;7019;50.766;4.474;2023-08-21T09:41:27;31.60;98.30
13898;DHT22;7019;50.766;4.474;2023-08-21T09:43:58;31.20;98.40
13898;DHT22;7019;50.766;4.474;2023-08-21T09:46:27;30.60;99.90
13898;DHT22;7019;50.766;4.474;2023-08-21T09:48:54;29.40;99.90
13898;DHT22;7019;50.766;4.474;2023-08-21T09:51:21;28.50;99.90
13898;DHT22;7019;50.766;4.474;2023-08-21T09:53:49;28.00;99.90
13898;DHT22;7019;50.766;4.474;2023-08-21T09:56:18;27.60;99.90
13898;DHT22;7019;50.766;4.474;2023-08-21T09:58:47;27.10;99.90
13898;DHT22;7019;50.766;4.474;2023-08-21T10:01:16;26.70;99.90
13898;DHT22;7019;50.766;4.474;2023-08-21T10:03:44;27.20;99.90
13898;DHT22;7019;50.766;4.474;2023-08-21T10:06:16;28.10;99.90
13898;DHT22;7019;50.766;4.474;2023-08-21T10:08:46;28.90;99.90
13898;DHT22;7019;50.766;4.474;2023-08-21T10:11:18;29.40;99.90
13898;DHT22;7019;50.766;4.474;2023-08-21T10:13:48;29.90;99.90
13898;DHT22;7019;50.766;4.474;2023-08-21T10:16:16;30.30;99.90
13898;DHT22;7019;50.766;4.474;2023-08-21T10:18:45;30.40;99.50
13898;DHT22;7019;50.766;4.474;2023-08-21T10:21:13;30.00;99.40
13898;DHT22;7019;50.766;4.474;2023-08-21T10:23:41;29.40;99.90
13898;DHT22;7019;50.766;4.474;2023-08-21T10:26:10;28.90;99.90
13898;DHT22;7019;50.766;4.474;2023-08-21T10:28:50;28.90;99.90
13898;DHT22;7019;50.766;4.474;2023-08-21T10:31:33;29.10;99.80
13898;DHT22;7019;50.766;4.474;2023-08-21T10:34:02;29.00;99.40
13898;DHT22;7019;50.766;4.474;2023-08-21T10:36:39;29.50;99.00
13898;DHT22;7019;50.766;4.474;2023-08-21T10:39:13;29.90;98.70
13898;DHT22;7019;50.766;4.474;2023-08-21T10:41:53;29.90;97.70
13898;DHT22;7019;50.766;4.474;2023-08-21T10:44:52;29.20;99.50
13898;DHT22;7019;50.766;4.474;2023-08-21T10:47:22;28.90;99.90
13898;DHT22;7019;50.766;4.474;2023-08-21T10:49:51;29.00;99.10
13898;DHT22;7019;50.766;4.474;2023-08-21T10:52:24;29.30;99.50
13898;DHT22;7019;50.766;4.474;2023-08-21T10:54:52;29.90;99.90
13898;DHT22;7019;50.766;4.474;2023-08-21T10:57:19;30.30;99.90
13898;DHT22;7019;50.766;4.474;2023-08-21T10:59:56;30.60;98.90
13898;DHT22;7019;50.766;4.474;2023-08-21T11:02:24;30.80;98.60
13898;DHT22;7019;50.766;4.474;2023-08-21T11:04:52;31.20;98.10
13898;DHT22;7019;50.766;4.474;2023-08-21T11:07:19;31.30;99.00
13898;DHT22;7019;50.766;4.474;2023-08-21T11:09:47;30.70;97.90
13898;DHT22;7019;50.766;4.474;2023-08-21T11:12:15;30.60;97.10
13898;DHT22;7019;50.766;4.474;2023-08-21T11:14:43;30.50;96.30
13898;DHT22;7019;50.766;4.474;2023-08-21T11:17:12;30.50;97.40
13898;DHT22;7019;50.766;4.474;2023-08-21T11:19:40;30.50;97.20
13898;DHT22;7019;50.766;4.474;2023-08-21T11:22:10;30.60;96.50
13898;DHT22;7019;50.766;4.474;2023-08-21T11:24:45;30.50;96.60
13898;DHT22;7019;50.766;4.474;2023-08-21T11:27:14;30.70;97.00
13898;DHT22;7019;50.766;4.474;2023-08-21T11:29:43;30.20;97.10
13898;DHT22;7019;50.766;4.474;2023-08-21T11:32:13;29.60;97.70
13898;DHT22;7019;50.766;4.474;2023-08-21T11:34:41;29.00;97.80
13898;DHT22;7019;50.766;4.474;2023-08-21T11:37:10;28.50;98.00
13898;DHT22;7019;50.766;4.474;2023-08-21T11:39:42;28.00;99.00
13898;DHT22;7019;50.766;4.474;2023-08-21T11:42:10;27.80;98.90
13898;DHT22;7019;50.766;4.474;2023-08-21T11:44:45;27.50;99.90
13898;DHT22;7019;50.766;4.474;2023-08-21T11:47:15;27.20;99.90
13898;DHT22;7019;50.766;4.474;2023-08-21T11:49:43;27.00;99.90
13898;DHT22;7019;50.766;4.474;2023-08-21T11:52:13;26.60;99.90
13898;DHT22;7019;50.766;4.474;2023-08-21T11:54:41;26.60;99.90
13898;DHT22;7019;50.766;4.474;2023-08-21T11:57:09;26.60;99.90
13898;DHT22;7019;50.766;4.474;2023-08-21T11:59:39;26.60;99.90
13898;DHT22;7019;50.766;4.474;2023-08-21T12:02:10;26.90;99.90
13898;DHT22;7019;50.766;4.474;2023-08-21T12:04:41;27.30;99.90
13898;DHT22;7019;50.766;4.474;2023-08-21T12:07:09;27.40;99.90
13898;DHT22;7019;50.766;4.474;2023-08-21T12:09:36;27.20;99.90
13898;DHT22;7019;50.766;4.474;2023-08-21T12:12:04;26.90;99.90
13898;DHT22;7019;50.766;4.474;2023-08-21T12:14:31;27.00;99.90
13898;DHT22;7019;50.766;4.474;2023-08-21T12:16:58;27.50;99.90
13898;DHT22;7019;50.766;4.474;2023-08-21T12:19:25;28.20;99.40
13898;DHT22;7019;50.766;4.474;2023-08-21T12:21:54;28.10;98.70
13898;DHT22;7019;50.766;4.474;2023-08-21T12:24:21;27.70;98.60
13898;DHT22;7019;50.766;4.474;2023-08-21T12:26:48;27.40;99.30
13898;DHT22;7019;50.766;4.474;2023-08-21T12:29:15;27.00;99.30
13898;DHT22;7019;50.766;4.474;2023-08-21T12:31:42;26.80;99.90
13898;DHT22;7019;50.766;4.474;2023-08-21T12:34:09;26.60;99.90
13898;DHT22;7019;50.766;4.474;2023-08-21T12:36:37;26.40;99.90
13898;DHT22;7019;50.766;4.474;2023-08-21T12:39:06;26.30;99.90
13898;DHT22;7019;50.766;4.474;2023-08-21T12:41:34;26.20;99.90
13898;DHT22;7019;50.766;4.474;2023-08-21T12:44:02;25.90;99.90
13898;DHT22;7019;50.766;4.474;2023-08-21T12:46:29;26.00;99.90
13898;DHT22;7019;50.766;4.474;2023-08-21T12:48:56;26.10;99.90
13898;DHT22;7019;50.766;4.474;2023-08-21T12:51:25;26.10;99.90
13898;DHT22;7019;50.766;4.474;2023-08-21T12:53:52;26.20;99.90
13898;DHT22;7019;50.766;4.474;2023-08-21T12:56:20;26.60;99.90
13898;DHT22;7019;50.766;4.474;2023-08-21T12:58:47;27.30;99.90
13898;DHT22;7019;50.766;4.474;2023-08-21T13:01:14;27.70;99.10
13898;DHT22;7019;50.766;4.474;2023-08-21T13:03:44;28.00;98.70
13898;DHT22;7019;50.766;4.474;2023-08-21T13:06:12;28.00;99.80
13898;DHT22;7019;50.766;4.474;2023-08-21T13:08:39;27.40;98.80
13898;DHT22;7019;50.766;4.474;2023-08-21T13:11:06;26.70;99.10
13898;DHT22;7019;50.766;4.474;2023-08-21T13:13:36;26.20;99.90
13898;DHT22;7019;50.766;4.474;2023-08-21T13:16:04;25.90;99.90
13898;DHT22;7019;50.766;4.474;2023-08-21T13:18:32;25.70;99.90
13898;DHT22;7019;50.766;4.474;2023-08-21T13:20:59;25.60;99.90
13898;DHT22;7019;50.766;4.474;2023-08-21T13:23:28;25.60;99.90
13898;DHT22;7019;50.766;4.474;2023-08-21T13:25:55;25.60;99.90
13898;DHT22;7019;50.766;4.474;2023-08-21T13:28:23;25.60;99.90
13898;DHT22;7019;50.766;4.474;2023-08-21T13:30:51;25.40;99.90
13898;DHT22;7019;50.766;4.474;2023-08-21T13:33:19;25.40;99.90
13898;DHT22;7019;50.766;4.474;2023-08-21T13:35:46;25.40;99.90
13898;DHT22;7019;50.766;4.474;2023-08-21T13:38:14;25.40;99.90
13898;DHT22;7019;50.766;4.474;2023-08-21T13:40:41;25.80;99.90
13898;DHT22;7019;50.766;4.474;2023-08-21T13:43:08;26.10;99.90
13898;DHT22;7019;50.766;4.474;2023-08-21T13:45:37;26.40;99.90
13898;DHT22;7019;50.766;4.474;2023-08-21T13:48:07;27.10;99.90
13898;DHT22;7019;50.766;4.474;2023-08-21T13:50:34;27.40;99.70
13898;DHT22;7019;50.766;4.474;2023-08-21T13:53:01;27.80;99.90
13898;DHT22;7019;50.766;4.474;2023-08-21T13:55:28;28.30;99.90
13898;DHT22;7019;50.766;4.474;2023-08-21T13:57:55;28.60;99.10
13898;DHT22;7019;50.766;4.474;2023-08-21T14:00:22;28.80;98.40
13898;DHT22;7019;50.766;4.474;2023-08-21T14:02:50;28.80;98.70
13898;DHT22;7019;50.766;4.474;2023-08-21T14:05:19;29.00;98.10
13898;DHT22;7019;50.766;4.474;2023-08-21T14:07:46;28.90;97.70
13898;DHT22;7019;50.766;4.474;2023-08-21T14:10:13;29.00;99.90
13898;DHT22;7019;50.766;4.474;2023-08-21T14:12:41;29.00;99.40
13898;DHT22;7019;50.766;4.474;2023-08-21T14:15:08;29.20;99.90
13898;DHT22;7019;50.766;4.474;2023-08-21T14:17:36;29.50;99.30
13898;DHT22;7019;50.766;4.474;2023-08-21T14:20:04;29.50;97.80
13898;DHT22;7019;50.766;4.474;2023-08-21T14:22:34;29.50;97.80
13898;DHT22;7019;50.766;4.474;2023-08-21T14:25:01;29.50;98.30
13898;DHT22;7019;50.766;4.474;2023-08-21T14:27:30;29.40;97.70
13898;DHT22;7019;50.766;4.474;2023-08-21T14:29:57;28.90;97.10
13898;DHT22;7019;50.766;4.474;2023-08-21T14:32:24;28.60;98.90
13898;DHT22;7019;50.766;4.474;2023-08-21T14:37:20;28.70;97.40
13898;DHT22;7019;50.766;4.474;2023-08-21T14:39:50;28.60;98.60
13898;DHT22;7019;50.766;4.474;2023-08-21T14:42:17;28.90;98.00
13898;DHT22;7019;50.766;4.474;2023-08-21T14:44:45;29.20;99.90
13898;DHT22;7019;50.766;4.474;2023-08-21T14:47:12;29.10;96.30
13898;DHT22;7019;50.766;4.474;2023-08-21T14:49:39;28.60;97.10
13898;DHT22;7019;50.766;4.474;2023-08-21T14:52:06;28.60;99.10
13898;DHT22;7019;50.766;4.474;2023-08-21T14:54:34;28.80;98.90
13898;DHT22;7019;50.766;4.474;2023-08-21T14:57:03;29.00;99.80
13898;DHT22;7019;50.766;4.474;2023-08-21T14:59:30;29.00;98.00
13898;DHT22;7019;50.766;4.474;2023-08-21T15:01:57;28.80;98.00
13898;DHT22;7019;50.766;4.474;2023-08-21T15:04:24;28.80;98.60
13898;DHT22;7019;50.766;4.474;2023-08-21T15:06:51;28.90;99.90
13898;DHT22;7019;50.766;4.474;2023-08-21T15:09:18;28.80;98.10
13898;DHT22;7019;50.766;4.474;2023-08-21T15:11:46;28.60;99.90
13898;DHT22;7019;50.766;4.474;2023-08-21T15:14:15;28.70;99.00
13898;DHT22;7019;50.766;4.474;2023-08-21T15:16:42;28.70;99.00
13898;DHT22;7019;50.766;4.474;2023-08-21T15:19:09;28.70;99.90
13898;DHT22;7019;50.766;4.474;2023-08-21T15:21:36;28.70;99.90
13898;DHT22;7019;50.766;4.474;2023-08-21T15:24:03;28.70;98.00
13898;DHT22;7019;50.766;4.474;2023-08-21T15:26:32;28.80;98.00
13898;DHT22;7019;50.766;4.474;2023-08-21T15:29:00;28.70;97.80
13898;DHT22;7019;50.766;4.474;2023-08-21T15:31:28;28.60;98.30
13898;DHT22;7019;50.766;4.474;2023-08-21T15:33:55;28.50;98.80
13898;DHT22;7019;50.766;4.474;2023-08-21T15:36:22;28.50;98.90
13898;DHT22;7019;50.766;4.474;2023-08-21T15:38:49;28.40;98.80
13898;DHT22;7019;50.766;4.474;2023-08-21T15:41:16;28.40;98.80
13898;DHT22;7019;50.766;4.474;2023-08-21T15:43:43;28.30;98.80
13898;DHT22;7019;50.766;4.474;2023-08-21T15:46:10;28.20;99.40
13898;DHT22;7019;50.766;4.474;2023-08-21T15:48:39;28.10;98.80
13898;DHT22;7019;50.766;4.474;2023-08-21T15:51:06;28.10;98.60
13898;DHT22;7019;50.766;4.474;2023-08-21T15:53:33;28.10;99.30